Time;durP1;ratioP1;P1;durP2;ratioP2;P2;SDS_P1;SDS_P2;PMS_P1;PMS_P2;Temp;Humidity;BMP_temperature;BMP_pressure;BME280_temperature;BME280_humidity;BME280_pressure;Samples;Min_cycle;Max_cycle;Signal;HPM_P1;HPM_P2
2022/01/04 00:00:43;;;;;;;17.05;3.40;;;7.00;99.90;;;;;;5035954;28;20045;-79
2022/01/04 00:03:10;;;;;;;26.52;3.20;;;7.00;99.90;;;;;;5018155;28;20053;-79
2022/01/04 00:05:36;;;;;;;16.70;2.65;;;6.90;99.90;;;;;;5036086;28;20071;-79
2022/01/04 00:08:02;;;;;;;22.50;4.05;;;6.90;99.90;;;;;;5018188;28;20050;-79
2022/01/04 00:10:29;;;;;;;22.75;4.18;;;7.00;99.90;;;;;;5035954;28;20157;-79
2022/01/04 00:15:42;;;;;;;26.58;3.65;;;7.00;99.90;;;;;;5018223;28;20076;-79
2022/01/04 00:18:08;;;;;;;26.60;4.47;;;7.00;99.90;;;;;;5017915;28;20398;-79
2022/01/04 00:20:33;;;;;;;20.98;3.08;;;7.00;99.90;;;;;;5017959;28;20559;-79
2022/01/04 00:22:59;;;;;;;25.42;3.35;;;7.00;99.90;;;;;;5035660;28;20043;-79
2022/01/04 00:25:25;;;;;;;21.13;3.05;;;7.00;99.90;;;;;;5017946;28;20140;-79
2022/01/04 00:27:51;;;;;;;25.45;5.05;;;7.00;99.90;;;;;;5017966;28;20092;-79
2022/01/04 00:30:16;;;;;;;21.95;3.45;;;7.00;99.90;;;;;;5017595;28;20395;-79
2022/01/04 00:32:42;;;;;;;24.25;3.50;;;7.00;99.90;;;;;;5017750;28;20097;-79
2022/01/04 00:35:08;;;;;;;23.50;4.32;;;7.00;99.90;;;;;;5017874;28;20093;-79
2022/01/04 00:37:34;;;;;;;13.45;3.00;;;7.00;99.90;;;;;;5017928;28;20049;-79
2022/01/04 00:40:00;;;;;;;24.60;5.15;;;7.00;99.90;;;;;;5035350;28;20374;-79
2022/01/04 00:42:26;;;;;;;21.90;4.47;;;7.00;99.90;;;;;;5035378;28;20041;-79
2022/01/04 00:44:52;;;;;;;23.08;2.90;;;7.00;99.90;;;;;;5017365;28;20145;-79
2022/01/04 00:47:25;;;;;;;20.45;3.63;;;7.00;99.90;;;;;;5017318;28;20045;-79
2022/01/04 00:49:50;;;;;;;21.77;3.60;;;7.00;99.90;;;;;;5017231;28;20065;-79
2022/01/04 00:52:17;;;;;;;20.27;4.07;;;7.00;99.90;;;;;;5017680;28;20045;-79
2022/01/04 00:54:43;;;;;;;27.52;4.85;;;7.00;99.90;;;;;;5017571;28;20045;-79
2022/01/04 00:57:08;;;;;;;18.85;4.28;;;7.00;99.90;;;;;;5035049;28;20168;-79
2022/01/04 00:59:34;;;;;;;23.35;3.83;;;7.00;99.90;;;;;;5017221;28;20127;-79
2022/01/04 01:02:00;;;;;;;23.48;4.40;;;7.00;99.90;;;;;;5017208;28;20116;-79
2022/01/04 01:04:25;;;;;;;24.90;4.28;;;7.00;99.90;;;;;;5017130;28;20080;-79
2022/01/04 01:06:51;;;;;;;24.50;4.72;;;7.00;99.90;;;;;;5016873;28;20132;-79
2022/01/04 01:09:17;;;;;;;20.92;4.78;;;7.10;99.90;;;;;;5016624;28;20042;-79
2022/01/04 01:11:42;;;;;;;24.25;3.33;;;7.10;99.90;;;;;;5017205;28;20041;-79
2022/01/04 01:14:08;;;;;;;16.80;3.35;;;7.10;99.90;;;;;;5016916;28;20421;-79
2022/01/04 01:16:34;;;;;;;21.75;3.90;;;7.10;99.90;;;;;;5016955;28;20111;-79
2022/01/04 01:18:59;;;;;;;26.80;5.93;;;7.10;99.90;;;;;;5016754;28;20057;-79
2022/01/04 01:21:25;;;;;;;19.92;4.85;;;7.10;99.90;;;;;;5017069;28;20143;-81
2022/01/04 01:23:51;;;;;;;28.13;4.88;;;7.10;99.90;;;;;;5017020;28;20182;-81
2022/01/04 01:26:17;;;;;;;23.48;4.72;;;7.10;99.90;;;;;;5016656;28;20496;-80
2022/01/04 01:28:42;;;;;;;21.38;4.10;;;7.10;99.90;;;;;;5034438;28;20046;-80
2022/01/04 01:31:09;;;;;;;23.02;3.85;;;7.10;99.90;;;;;;5016917;28;20048;-80
2022/01/04 01:33:35;;;;;;;24.35;4.10;;;7.10;99.90;;;;;;5034384;28;20080;-81
2022/01/04 01:36:01;;;;;;;17.88;3.88;;;7.10;99.90;;;;;;5016982;28;20099;-81
2022/01/04 01:38:27;;;;;;;18.90;4.57;;;7.10;99.90;;;;;;5016847;28;20511;-80
2022/01/04 01:40:53;;;;;;;22.65;4.20;;;7.10;99.90;;;;;;5034265;28;20048;-81
2022/01/04 01:43:19;;;;;;;23.88;3.53;;;7.10;99.90;;;;;;5016320;28;20038;-81
2022/01/04 01:45:45;;;;;;;17.80;3.15;;;7.10;99.90;;;;;;5034174;28;20080;-81
2022/01/04 01:48:11;;;;;;;29.10;4.07;;;7.10;99.90;;;;;;5012879;28;20050;-81
2022/01/04 01:50:38;;;;;;;22.30;3.75;;;7.20;99.90;;;;;;5013145;28;20061;-81
2022/01/04 01:53:04;;;;;;;25.75;4.78;;;7.20;99.90;;;;;;5013088;28;20072;-80
2022/01/04 01:55:30;;;;;;;25.05;3.92;;;7.10;99.90;;;;;;5012830;28;20045;-80
2022/01/04 01:57:56;;;;;;;26.35;4.70;;;7.20;99.90;;;;;;5014478;28;20045;-80
2022/01/04 02:00:24;;;;;;;19.33;4.72;;;7.20;99.90;;;;;;5012918;28;20113;-80
2022/01/04 02:02:50;;;;;;;19.73;4.35;;;7.10;99.90;;;;;;5012847;28;20513;-80
2022/01/04 02:05:16;;;;;;;19.83;4.75;;;7.10;99.90;;;;;;5012914;28;20091;-80
2022/01/04 02:07:43;;;;;;;27.10;5.78;;;7.20;99.90;;;;;;5012689;28;20493;-79
2022/01/04 02:10:10;;;;;;;18.15;6.65;;;7.20;99.90;;;;;;5014163;28;20050;-79
2022/01/04 02:12:41;;;;;;;23.95;5.85;;;7.10;99.90;;;;;;5014080;28;20060;-79
2022/01/04 02:15:10;;;;;;;21.02;4.65;;;7.20;99.90;;;;;;5013000;28;20084;-79
2022/01/04 02:17:35;;;;;;;28.45;7.70;;;7.20;99.90;;;;;;5012729;28;20129;-79
2022/01/04 02:20:02;;;;;;;32.10;7.30;;;7.20;99.90;;;;;;5012524;28;20129;-79
2022/01/04 02:22:28;;;;;;;26.55;5.80;;;7.20;99.90;;;;;;5012519;28;20046;-79
2022/01/04 02:24:54;;;;;;;26.40;5.32;;;7.20;99.90;;;;;;5012442;28;20042;-79
2022/01/04 02:27:20;;;;;;;24.77;6.10;;;7.20;99.90;;;;;;5012564;28;20512;-79
2022/01/04 02:29:47;;;;;;;26.50;6.00;;;7.20;99.90;;;;;;5012608;28;20058;-79
2022/01/04 02:32:14;;;;;;;24.48;6.88;;;7.20;99.90;;;;;;5012627;28;20050;-79
2022/01/04 02:34:41;;;;;;;25.95;5.63;;;7.20;99.90;;;;;;5013880;28;20049;-78
2022/01/04 02:37:07;;;;;;;26.42;6.45;;;7.20;99.90;;;;;;5012609;28;20045;-79
2022/01/04 02:39:39;;;;;;;30.75;6.13;;;7.20;99.90;;;;;;5013644;28;20519;-79
2022/01/04 02:42:05;;;;;;;26.08;5.40;;;7.20;99.90;;;;;;5012424;28;20125;-79
2022/01/04 02:44:32;;;;;;;23.95;7.32;;;7.20;99.90;;;;;;5012498;28;20042;-79
2022/01/04 02:46:58;;;;;;;23.88;6.03;;;7.20;99.90;;;;;;5012467;28;20444;-79
2022/01/04 02:49:24;;;;;;;33.60;5.95;;;7.20;99.90;;;;;;5012254;28;20058;-79
2022/01/04 02:51:50;;;;;;;25.58;5.00;;;7.20;99.90;;;;;;5012379;28;20508;-79
2022/01/04 02:54:15;;;;;;;24.70;5.43;;;7.20;99.90;;;;;;5012272;28;20060;-79
2022/01/04 02:56:41;;;;;;;31.58;5.57;;;7.30;99.90;;;;;;5012399;28;20045;-79
2022/01/04 02:59:07;;;;;;;28.52;5.75;;;7.30;99.90;;;;;;5013693;28;20050;-79
2022/01/04 03:01:32;;;;;;;31.77;5.03;;;7.30;99.90;;;;;;5013611;28;20446;-79
2022/01/04 03:03:58;;;;;;;20.60;5.25;;;7.30;99.90;;;;;;5012318;28;20042;-79
2022/01/04 03:06:25;;;;;;;27.35;6.97;;;7.20;99.90;;;;;;5012164;28;20050;-79
2022/01/04 03:08:51;;;;;;;32.00;5.88;;;7.30;99.90;;;;;;5012082;28;20380;-79
2022/01/04 03:11:17;;;;;;;30.70;6.38;;;7.20;99.90;;;;;;5012477;28;20485;-79
2022/01/04 03:13:42;;;;;;;28.60;7.78;;;7.20;99.90;;;;;;5012192;28;20472;-79
2022/01/04 03:16:08;;;;;;;22.45;5.30;;;7.30;99.90;;;;;;5012167;28;20500;-79
2022/01/04 03:18:37;;;;;;;28.52;5.32;;;7.30;99.90;;;;;;5011986;28;20046;-79
2022/01/04 03:21:02;;;;;;;23.98;5.50;;;7.30;99.90;;;;;;5011994;28;20050;-79
2022/01/04 03:23:28;;;;;;;27.15;5.65;;;7.30;99.90;;;;;;5012224;28;20042;-79
2022/01/04 03:25:54;;;;;;;28.05;5.47;;;7.30;99.90;;;;;;5012230;28;20045;-79
2022/01/04 03:28:21;;;;;;;21.02;4.82;;;7.30;99.90;;;;;;5012092;28;20046;-79
2022/01/04 03:30:46;;;;;;;30.65;6.45;;;7.30;99.90;;;;;;5012773;28;20085;-79
2022/01/04 03:33:12;;;;;;;23.08;5.90;;;7.30;99.90;;;;;;5015710;28;20117;-79
2022/01/04 03:35:38;;;;;;;27.58;6.85;;;7.30;99.90;;;;;;5016846;28;20511;-79
2022/01/04 03:38:04;;;;;;;24.98;6.50;;;7.30;99.90;;;;;;5015705;28;20042;-79
2022/01/04 03:40:29;;;;;;;31.67;8.52;;;7.30;99.90;;;;;;5015685;28;20370;-79
2022/01/04 03:42:55;;;;;;;32.55;7.50;;;7.30;99.90;;;;;;5015424;28;20124;-79
2022/01/04 03:45:21;;;;;;;44.42;7.88;;;7.30;99.90;;;;;;5016580;28;20048;-79
2022/01/04 03:47:46;;;;;;;37.53;10.02;;;7.30;99.90;;;;;;5016077;28;20060;-79
2022/01/04 03:50:12;;;;;;;32.30;8.57;;;7.30;99.90;;;;;;5018464;28;20053;-79
2022/01/04 03:52:38;;;;;;;36.30;9.80;;;7.30;99.90;;;;;;5018511;28;20117;-79
2022/01/04 03:55:06;;;;;;;28.98;9.00;;;7.30;99.90;;;;;;5018519;28;20049;-79
2022/01/04 03:57:32;;;;;;;28.75;8.55;;;7.30;99.90;;;;;;5018657;28;20057;-79
2022/01/04 03:59:57;;;;;;;25.45;7.63;;;7.20;99.90;;;;;;5018496;28;20099;-79
2022/01/04 04:02:23;;;;;;;29.58;8.38;;;7.20;99.90;;;;;;5036096;28;20049;-79
2022/01/04 04:04:48;;;;;;;33.35;7.72;;;7.20;99.90;;;;;;5035760;28;20404;-79
2022/01/04 04:07:14;;;;;;;28.70;8.30;;;7.20;99.90;;;;;;5018173;28;20044;-79
2022/01/04 04:09:40;;;;;;;37.30;8.57;;;7.20;99.90;;;;;;5018345;28;20052;-79
2022/01/04 04:12:06;;;;;;;32.47;9.20;;;7.20;99.90;;;;;;5018197;28;20459;-79
2022/01/04 04:14:32;;;;;;;32.40;9.88;;;7.20;99.90;;;;;;5018216;28;20048;-79
2022/01/04 04:16:58;;;;;;;30.13;8.93;;;7.20;99.90;;;;;;5018082;28;20049;-79
2022/01/04 04:19:24;;;;;;;35.20;9.07;;;7.20;99.90;;;;;;5017892;28;20053;-79
2022/01/04 04:21:49;;;;;;;37.60;9.52;;;7.20;99.90;;;;;;5017859;28;20087;-79
2022/01/04 04:24:15;;;;;;;33.35;9.88;;;7.20;99.90;;;;;;5017830;28;20049;-79
2022/01/04 04:26:40;;;;;;;36.08;10.25;;;7.30;99.90;;;;;;5017945;28;20049;-79
2022/01/04 04:29:06;;;;;;;37.50;11.82;;;7.30;99.90;;;;;;5018324;28;20057;-79
2022/01/04 04:31:32;;;;;;;43.35;12.55;;;7.30;99.90;;;;;;5017919;28;20491;-79
2022/01/04 04:33:57;;;;;;;28.77;9.52;;;7.30;99.90;;;;;;5017971;28;20049;-79
2022/01/04 04:36:24;;;;;;;35.53;10.63;;;7.30;99.90;;;;;;5035506;28;20477;-79
2022/01/04 04:38:50;;;;;;;34.15;9.60;;;7.30;99.90;;;;;;5017675;28;20447;-79
2022/01/04 04:41:15;;;;;;;36.17;9.77;;;7.30;99.90;;;;;;5017680;28;20477;-79
2022/01/04 04:43:41;;;;;;;36.28;8.27;;;7.30;99.90;;;;;;5017778;28;20128;-79
2022/01/04 04:46:07;;;;;;;27.23;7.90;;;7.30;99.90;;;;;;5017362;28;20404;-79
2022/01/04 04:48:33;;;;;;;35.53;7.63;;;7.30;99.90;;;;;;5017238;28;20116;-79
2022/01/04 04:50:58;;;;;;;30.85;7.75;;;7.30;99.90;;;;;;5017586;28;20053;-79
2022/01/04 04:53:24;;;;;;;33.70;7.78;;;7.30;99.90;;;;;;5017413;28;20438;-79
2022/01/04 04:55:49;;;;;;;27.15;6.53;;;7.30;99.90;;;;;;5017451;28;20115;-79
2022/01/04 04:58:16;;;;;;;36.58;7.22;;;7.30;99.90;;;;;;5017642;28;20048;-79
2022/01/04 05:00:42;;;;;;;30.30;7.70;;;7.30;99.90;;;;;;5017361;28;20088;-79
2022/01/04 05:03:07;;;;;;;21.77;7.40;;;7.40;99.90;;;;;;5017566;28;20073;-79
2022/01/04 05:05:33;;;;;;;27.05;7.22;;;7.40;99.90;;;;;;5017129;28;20072;-79
2022/01/04 05:07:59;;;;;;;33.65;7.28;;;7.30;99.90;;;;;;5017383;28;20049;-79
2022/01/04 05:10:24;;;;;;;34.75;8.23;;;7.40;99.90;;;;;;5017430;28;20434;-79
2022/01/04 05:12:50;;;;;;;33.03;6.78;;;7.30;99.90;;;;;;5034740;28;20057;-79
2022/01/04 05:15:16;;;;;;;29.95;7.63;;;7.30;99.90;;;;;;5017139;28;20061;-79
2022/01/04 05:17:41;;;;;;;30.08;6.75;;;7.30;99.90;;;;;;5016817;28;20370;-79
2022/01/04 05:20:07;;;;;;;28.15;6.25;;;7.30;99.90;;;;;;5034967;28;20045;-79
2022/01/04 05:22:33;;;;;;;36.10;7.32;;;7.30;99.90;;;;;;5017109;28;20049;-79
2022/01/04 05:24:59;;;;;;;32.05;6.78;;;7.30;99.90;;;;;;5016794;28;20049;-79
2022/01/04 05:27:24;;;;;;;27.92;6.95;;;7.30;99.90;;;;;;5017027;28;20077;-79
2022/01/04 05:29:50;;;;;;;31.17;7.72;;;7.30;99.90;;;;;;5016631;28;20491;-79
2022/01/04 05:32:16;;;;;;;25.17;5.85;;;7.30;99.90;;;;;;5016900;28;20493;-79
2022/01/04 05:34:41;;;;;;;33.13;7.10;;;7.40;99.90;;;;;;5016535;28;20488;-79
2022/01/04 05:37:07;;;;;;;28.40;5.72;;;7.30;99.90;;;;;;5034251;28;20045;-79
2022/01/04 05:39:33;;;;;;;30.63;7.25;;;7.30;99.90;;;;;;5034189;28;20045;-79
2022/01/04 05:41:59;;;;;;;25.98;5.88;;;7.30;99.90;;;;;;5034295;28;20488;-79
2022/01/04 05:44:24;;;;;;;26.98;6.93;;;7.30;99.90;;;;;;5016321;28;20520;-79
2022/01/04 05:46:50;;;;;;;33.47;7.40;;;7.30;99.90;;;;;;5034059;28;20045;-79
2022/01/04 05:49:16;;;;;;;27.50;5.63;;;7.30;99.90;;;;;;5016088;28;20061;-79
2022/01/04 05:51:43;;;;;;;30.02;6.90;;;7.30;99.90;;;;;;5034177;28;20049;-79
2022/01/04 05:54:09;;;;;;;21.75;5.18;;;7.30;99.90;;;;;;5015903;28;20128;-79
2022/01/04 05:56:35;;;;;;;32.47;6.38;;;7.30;99.90;;;;;;5016363;28;20132;-79
2022/01/04 05:59:00;;;;;;;27.95;5.82;;;7.40;99.90;;;;;;5016331;28;20037;-79
2022/01/04 06:01:26;;;;;;;23.60;4.85;;;7.30;99.90;;;;;;5016178;28;20049;-79
2022/01/04 06:03:52;;;;;;;16.83;3.17;;;7.40;99.90;;;;;;5033801;28;20038;-79
2022/01/04 06:06:18;;;;;;;20.42;2.97;;;7.30;99.90;;;;;;5016086;28;20049;-79
2022/01/04 06:08:45;;;;;;;15.82;2.97;;;7.30;99.90;;;;;;5016178;28;20435;-79
2022/01/04 06:11:31;;;;;;;17.42;2.83;;;7.30;99.90;;;;;;5016131;28;20140;-79
2022/01/04 06:16:42;;;;;;;12.13;2.03;;;7.20;99.90;;;;;;5016299;28;20139;-79
2022/01/04 06:19:07;;;;;;;9.50;1.67;;;7.20;99.90;;;;;;5016040;28;20072;-79
2022/01/04 06:21:33;;;;;;;10.93;2.78;;;7.20;99.90;;;;;;5033675;28;20060;-79
2022/01/04 06:23:58;;;;;;;22.73;2.80;;;7.20;99.90;;;;;;5033593;28;20128;-79
2022/01/04 06:26:24;;;;;;;18.27;2.85;;;7.20;99.90;;;;;;5015878;28;20033;-79
2022/01/04 06:28:50;;;;;;;15.45;2.15;;;7.20;99.90;;;;;;5015826;28;20053;-79
2022/01/04 06:31:16;;;;;;;20.35;3.60;;;7.20;99.90;;;;;;5033600;28;20042;-79
2022/01/04 06:33:43;;;;;;;15.70;3.83;;;7.20;99.90;;;;;;5015874;28;20523;-79
2022/01/04 06:36:08;;;;;;;23.40;3.10;;;7.20;99.90;;;;;;5015913;28;20045;-79
2022/01/04 06:38:34;;;;;;;21.50;3.85;;;7.20;99.90;;;;;;5015918;28;20074;-79
2022/01/04 06:41:00;;;;;;;19.92;4.63;;;7.20;99.90;;;;;;5015989;28;20077;-79
2022/01/04 06:43:25;;;;;;;15.90;4.30;;;7.20;99.90;;;;;;5015643;28;20423;-79
2022/01/04 06:45:51;;;;;;;12.65;2.83;;;7.20;99.90;;;;;;5016003;28;20049;-79
2022/01/04 06:48:17;;;;;;;18.67;4.10;;;7.20;99.90;;;;;;5033173;28;20111;-79
2022/01/04 06:50:42;;;;;;;18.95;3.67;;;7.20;99.90;;;;;;5033496;28;20041;-79
2022/01/04 06:53:08;;;;;;;19.10;3.13;;;7.20;99.90;;;;;;5033220;28;20050;-79
2022/01/04 06:55:34;;;;;;;17.98;3.17;;;7.10;99.90;;;;;;5015868;28;20041;-79
2022/01/04 06:57:59;;;;;;;10.27;2.22;;;7.20;99.90;;;;;;5015563;28;20045;-79
2022/01/04 07:00:25;;;;;;;14.85;3.35;;;7.10;99.90;;;;;;5015653;28;20042;-79
2022/01/04 07:02:51;;;;;;;17.15;2.38;;;7.10;99.90;;;;;;5033316;28;20080;-79
2022/01/04 07:05:16;;;;;;;16.40;4.18;;;7.10;99.90;;;;;;5015519;28;20489;-79
2022/01/04 07:07:42;;;;;;;16.35;3.63;;;7.10;99.90;;;;;;5019290;28;20128;-79
2022/01/04 07:10:08;;;;;;;12.45;2.80;;;7.00;99.90;;;;;;5019224;28;20046;-79
2022/01/04 07:12:34;;;;;;;17.52;4.53;;;7.00;99.90;;;;;;5019443;28;20473;-79
2022/01/04 07:14:59;;;;;;;19.08;3.40;;;7.00;99.90;;;;;;5019267;28;20045;-79
2022/01/04 07:17:25;;;;;;;16.38;3.65;;;7.00;99.90;;;;;;5019158;28;20041;-79
2022/01/04 07:19:51;;;;;;;13.82;3.05;;;7.00;99.90;;;;;;5019526;28;20132;-79
2022/01/04 07:22:16;;;;;;;11.85;3.17;;;7.00;99.90;;;;;;5019195;28;20136;-79
2022/01/04 07:24:42;;;;;;;19.33;3.47;;;7.00;99.90;;;;;;5018918;28;20045;-79
2022/01/04 07:27:08;;;;;;;15.38;2.88;;;7.00;99.90;;;;;;5018948;28;20050;-79
2022/01/04 07:29:33;;;;;;;19.05;4.80;;;7.00;99.90;;;;;;5019224;28;20069;-79
2022/01/04 07:31:59;;;;;;;15.73;3.70;;;7.00;99.90;;;;;;5019182;28;20048;-79
2022/01/04 07:34:25;;;;;;;23.83;3.92;;;7.00;99.90;;;;;;5019260;28;20064;-79
2022/01/04 07:36:50;;;;;;;21.25;4.22;;;7.00;99.90;;;;;;5018941;28;20461;-79
2022/01/04 07:39:16;;;;;;;19.00;3.58;;;7.00;99.90;;;;;;5018975;28;20045;-79
2022/01/04 07:41:41;;;;;;;19.85;3.65;;;7.00;99.90;;;;;;5036354;28;20037;-79
2022/01/04 07:44:07;;;;;;;11.93;1.38;;;7.10;99.90;;;;;;5018621;28;20080;-79
2022/01/04 07:46:33;;;;;;;5.38;1.20;;;7.10;99.90;;;;;;5018691;28;20053;-79
2022/01/04 07:48:58;;;;;;;7.45;0.80;;;7.20;99.90;;;;;;5036096;28;20060;-79
2022/01/04 07:51:24;;;;;;;3.63;0.55;;;7.20;99.90;;;;;;5018774;28;20092;-79
2022/01/04 07:53:50;;;;;;;6.32;1.00;;;7.20;99.90;;;;;;5018440;28;20439;-79
2022/01/04 07:56:16;;;;;;;10.93;1.35;;;7.20;99.90;;;;;;5018679;28;20049;-79
2022/01/04 07:58:42;;;;;;;5.70;0.63;;;7.10;99.90;;;;;;5018898;28;20468;-79
2022/01/04 08:01:07;;;;;;;8.52;0.65;;;7.00;99.90;;;;;;5018208;28;20500;-79
2022/01/04 08:03:33;;;;;;;4.80;0.88;;;7.10;99.90;;;;;;5018018;28;20046;-79
2022/01/04 08:05:59;;;;;;;5.00;0.63;;;7.00;99.90;;;;;;5017071;28;20377;-80
2022/01/04 08:08:25;;;;;;;3.15;0.40;;;6.90;99.90;;;;;;5036042;28;20073;-80
2022/01/04 08:10:51;;;;;;;4.47;0.70;;;6.90;99.90;;;;;;5035623;28;20041;-80
2022/01/04 08:13:17;;;;;;;7.78;0.50;;;6.90;99.90;;;;;;5017948;28;20060;-80
2022/01/04 08:15:43;;;;;;;6.15;0.82;;;6.80;99.90;;;;;;5018110;28;20033;-80
2022/01/04 08:18:08;;;;;;;6.43;0.57;;;6.80;99.90;;;;;;5035204;28;20508;-80
2022/01/04 08:20:34;;;;;;;6.38;0.50;;;6.70;99.90;;;;;;5017820;28;20045;-80
2022/01/04 08:23:01;;;;;;;10.30;1.70;;;6.70;99.90;;;;;;5035739;28;20057;-80
2022/01/04 08:25:27;;;;;;;3.38;0.43;;;6.70;99.90;;;;;;5017650;28;20064;-80
2022/01/04 08:27:53;;;;;;;3.03;0.40;;;6.70;99.90;;;;;;5017692;28;20038;-80
2022/01/04 08:30:19;;;;;;;4.57;0.40;;;6.70;99.90;;;;;;5017850;28;20168;-80
2022/01/04 08:32:45;;;;;;;4.28;0.50;;;6.60;99.90;;;;;;5035419;28;20073;-80
2022/01/04 08:35:11;;;;;;;3.13;0.35;;;6.60;99.90;;;;;;5017446;28;20103;-80
2022/01/04 08:37:37;;;;;;;4.10;0.60;;;6.60;99.90;;;;;;5035333;28;20057;-80
2022/01/04 08:40:05;;;;;;;4.95;0.50;;;6.60;99.90;;;;;;5017653;28;20453;-80
2022/01/04 08:42:32;;;;;;;2.55;0.80;;;6.50;99.90;;;;;;5017343;28;20053;-80
2022/01/04 08:44:57;;;;;;;4.53;0.45;;;6.50;99.90;;;;;;5035165;28;20086;-79
2022/01/04 08:47:23;;;;;;;3.28;0.50;;;6.50;99.90;;;;;;5035220;28;20042;-80
2022/01/04 08:49:49;;;;;;;5.32;0.68;;;6.50;99.90;;;;;;5017531;28;20092;-80
2022/01/04 08:52:15;;;;;;;8.52;0.70;;;6.50;99.90;;;;;;5017275;28;20037;-80
2022/01/04 08:54:41;;;;;;;3.70;0.40;;;6.50;99.90;;;;;;5017432;28;20045;-80
2022/01/04 08:57:07;;;;;;;3.25;0.73;;;6.50;99.90;;;;;;5021723;28;20076;-78
2022/01/04 08:59:33;;;;;;;6.55;0.30;;;6.50;99.90;;;;;;5042636;28;20042;-79
2022/01/04 09:01:59;;;;;;;4.45;0.40;;;6.50;99.90;;;;;;5028020;28;20056;-79
2022/01/04 09:04:24;;;;;;;5.28;0.55;;;6.50;99.90;;;;;;5054729;28;20377;-78
2022/01/04 09:06:50;;;;;;;2.13;0.50;;;6.50;99.90;;;;;;5036939;28;20049;-79
2022/01/04 09:09:16;;;;;;;2.65;0.57;;;6.60;99.90;;;;;;5036795;28;20538;-80
2022/01/04 09:11:42;;;;;;;5.20;0.40;;;6.50;99.90;;;;;;5036474;28;20559;-80
2022/01/04 09:19:18;;;;;;;3.22;0.35;;;6.50;99.90;;;;;;5036610;28;20063;-79
2022/01/04 09:21:45;;;;;;;3.47;0.45;;;6.40;99.90;;;;;;5036038;28;20488;-79
2022/01/04 09:24:11;;;;;;;1.45;0.55;;;6.40;99.90;;;;;;5036166;28;20045;-79
2022/01/04 09:26:36;;;;;;;5.10;1.05;;;6.30;99.90;;;;;;5054017;28;20194;-79
2022/01/04 09:29:03;;;;;;;4.20;0.30;;;6.20;99.90;;;;;;5053154;28;20037;-79
2022/01/04 09:31:29;;;;;;;2.20;0.20;;;6.20;99.90;;;;;;5053917;28;20044;-79
2022/01/04 09:33:57;;;;;;;2.55;0.20;;;6.10;99.90;;;;;;5036062;28;20099;-79
2022/01/04 09:36:23;;;;;;;0.47;0.15;;;6.10;99.90;;;;;;5035965;28;20044;-79
2022/01/04 09:38:49;;;;;;;0.52;0.10;;;6.10;99.90;;;;;;5054150;28;20361;-79
2022/01/04 09:41:14;;;;;;;2.65;0.40;;;6.10;99.90;;;;;;5053799;28;20456;-79
2022/01/04 09:43:40;;;;;;;9.10;1.48;;;6.10;99.90;;;;;;5035922;28;20049;-79
2022/01/04 09:46:06;;;;;;;5.47;0.60;;;6.10;99.90;;;;;;5035895;28;20068;-79
2022/01/04 09:48:31;;;;;;;2.70;0.35;;;6.10;99.90;;;;;;5035643;28;20067;-79
2022/01/04 09:50:58;;;;;;;6.30;1.02;;;6.10;99.90;;;;;;5053369;28;20084;-79
2022/01/04 09:53:25;;;;;;;4.05;0.50;;;6.10;99.90;;;;;;5053655;28;20094;-79
2022/01/04 09:55:57;;;;;;;5.60;0.77;;;6.10;99.90;;;;;;5035957;28;20131;-79
2022/01/04 09:58:24;;;;;;;5.50;0.67;;;6.10;99.90;;;;;;5035462;28;20052;-78
2022/01/04 10:00:51;;;;;;;5.60;1.00;;;6.10;99.90;;;;;;5035798;28;20053;-79
2022/01/04 10:03:18;;;;;;;4.40;0.40;;;6.10;99.90;;;;;;5034701;28;20110;-78
2022/01/04 10:05:45;;;;;;;5.90;0.82;;;6.10;99.90;;;;;;5045126;28;20066;-79
2022/01/04 10:08:12;;;;;;;4.68;0.50;;;6.00;99.90;;;;;;5033221;28;20037;-79
2022/01/04 10:10:39;;;;;;;5.82;0.50;;;5.90;99.90;;;;;;5039429;28;20051;-79
2022/01/04 10:13:14;;;;;;;5.88;0.63;;;5.90;99.90;;;;;;5036246;28;20048;-79
2022/01/04 10:15:41;;;;;;;10.32;1.00;;;5.90;99.90;;;;;;5038469;28;20121;-78
2022/01/04 10:18:13;;;;;;;3.75;0.65;;;5.90;99.90;;;;;;5053405;28;20053;-79
2022/01/04 10:20:49;;;;;;;4.68;0.52;;;5.90;99.90;;;;;;5035539;28;20123;-78
2022/01/04 10:23:17;;;;;;;12.18;1.10;;;5.80;99.90;;;;;;5052666;28;20503;-80
2022/01/04 10:25:45;;;;;;;4.65;0.50;;;5.80;99.90;;;;;;5035284;28;20076;-79
2022/01/04 10:28:11;;;;;;;3.15;0.50;;;5.70;99.90;;;;;;5053132;28;20037;-79
2022/01/04 10:30:39;;;;;;;3.47;0.50;;;5.60;99.90;;;;;;5053333;28;20064;-80
2022/01/04 10:33:05;;;;;;;4.35;0.30;;;5.60;99.90;;;;;;5035184;28;20488;-79
2022/01/04 10:35:40;;;;;;;3.63;0.45;;;5.70;99.90;;;;;;5037908;28;20091;-79
2022/01/04 10:38:24;;;;;;;5.25;0.40;;;5.70;99.90;;;;;;5040088;28;20049;-79
2022/01/04 10:40:59;;;;;;;2.30;0.90;;;5.60;99.90;;;;;;5055395;28;20040;-79
2022/01/04 10:43:37;;;;;;;6.72;0.40;;;5.70;99.90;;;;;;5055501;28;20045;-80
2022/01/04 10:46:04;;;;;;;8.13;1.67;;;5.70;99.90;;;;;;5056133;28;20060;-79
2022/01/04 10:48:33;;;;;;;5.47;0.63;;;5.60;99.90;;;;;;5044763;28;20053;-80
2022/01/04 10:51:06;;;;;;;3.53;0.30;;;5.60;99.90;;;;;;5035848;28;20412;-80
2022/01/04 10:53:35;;;;;;;;;;;5.70;99.90;;;;;;5036091;28;20465;-79
2022/01/04 10:56:07;;;;;;;3.80;0.38;;;5.70;99.90;;;;;;5036128;28;20414;-80
2022/01/04 10:58:35;;;;;;;2.13;0.35;;;5.70;99.90;;;;;;5035377;28;20042;-79
2022/01/04 11:01:13;;;;;;;7.75;0.63;;;5.70;99.90;;;;;;5035703;28;20045;-79
2022/01/04 11:03:43;;;;;;;4.35;0.63;;;5.70;99.90;;;;;;5035662;28;20053;-79
2022/01/04 11:06:12;;;;;;;7.63;0.60;;;5.70;99.90;;;;;;5035913;28;20132;-80
2022/01/04 11:08:38;;;;;;;3.05;0.38;;;5.80;99.90;;;;;;5037125;28;20406;-79
2022/01/04 11:11:05;;;;;;;7.45;0.77;;;5.80;99.90;;;;;;5035284;28;20379;-80
2022/01/04 11:13:31;;;;;;;8.45;1.23;;;5.80;99.90;;;;;;5008684;28;20481;-78
2022/01/04 11:15:57;;;;;;;5.95;1.67;;;5.80;99.90;;;;;;5011396;28;20040;-80
2022/01/04 11:18:23;;;;;;;11.02;0.95;;;5.80;99.90;;;;;;5036690;28;20447;-82
2022/01/04 11:20:50;;;;;;;6.35;0.90;;;5.90;99.90;;;;;;5031970;28;20037;-80
2022/01/04 11:23:17;;;;;;;9.95;1.08;;;6.00;99.90;;;;;;5029693;28;20049;-80
2022/01/04 11:25:44;;;;;;;5.10;0.50;;;6.10;99.90;;;;;;5020817;28;20057;-80
2022/01/04 11:28:13;;;;;;;5.88;0.65;;;6.10;99.90;;;;;;5035074;28;20045;-79
2022/01/04 11:30:45;;;;;;;3.53;0.50;;;6.10;99.90;;;;;;5035284;28;20125;-80
2022/01/04 11:33:27;;;;;;;7.97;1.42;;;6.00;99.90;;;;;;5034733;28;20045;-80
2022/01/04 11:35:54;;;;;;;8.57;1.05;;;6.00;99.90;;;;;;5035265;28;20409;-80
2022/01/04 11:38:34;;;;;;;9.52;0.88;;;6.00;99.90;;;;;;5036297;28;20120;-80
2022/01/04 11:41:00;;;;;;;5.50;0.70;;;5.90;99.90;;;;;;5034778;28;20037;-80
2022/01/04 11:43:32;;;;;;;4.43;0.73;;;5.80;99.90;;;;;;5035135;28;20515;-80
2022/01/04 11:45:58;;;;;;;2.80;0.65;;;5.80;99.90;;;;;;5036202;28;20056;-81
2022/01/04 11:48:43;;;;;;;9.07;2.25;;;5.70;99.90;;;;;;5034190;28;20057;-80
2022/01/04 11:51:29;;;;;;;4.80;0.50;;;5.80;99.90;;;;;;5034614;28;20056;-80
2022/01/04 11:54:16;;;;;;;5.95;0.60;;;5.70;99.90;;;;;;5027300;28;20061;-81
2022/01/04 11:56:51;;;;;;;5.47;0.55;;;5.70;99.90;;;;;;5027087;28;20431;-80
2022/01/04 11:59:20;;;;;;;9.32;0.73;;;5.80;99.90;;;;;;5034553;28;20045;-81
2022/01/04 12:01:46;;;;;;;10.05;1.02;;;5.80;99.90;;;;;;5034634;28;20049;-83
2022/01/04 12:04:12;;;;;;;8.00;0.95;;;5.70;99.90;;;;;;5033837;28;20111;-81
2022/01/04 12:06:42;;;;;;;2.60;0.60;;;5.80;99.90;;;;;;5035761;28;20037;-81
2022/01/04 12:09:27;;;;;;;4.35;0.73;;;5.80;99.90;;;;;;5036080;28;20053;-82
2022/01/04 12:11:53;;;;;;;4.68;0.80;;;5.80;99.90;;;;;;5034443;28;20050;-81
2022/01/04 12:14:24;;;;;;;4.30;0.77;;;5.80;99.90;;;;;;5034476;28;20052;-81
2022/01/04 12:17:05;;;;;;;9.32;0.90;;;5.70;99.90;;;;;;5034679;28;20060;-81
2022/01/04 12:19:48;;;;;;;8.13;1.17;;;5.80;99.90;;;;;;5022938;28;20555;-81
2022/01/04 12:22:27;;;;;;;;;;;5.80;99.90;;;;;;5034393;28;20053;-81
2022/01/04 12:25:02;;;;;;;6.40;0.93;;;5.80;99.90;;;;;;5035583;28;19921;-80
2022/01/04 12:27:27;;;;;;;10.18;0.90;;;5.70;99.90;;;;;;5034175;28;20049;-81
2022/01/04 12:30:26;;;;;;;4.88;1.40;;;5.70;99.90;;;;;;5035198;28;20182;-81
2022/01/04 12:32:52;;;;;;;7.40;1.00;;;5.70;99.90;;;;;;5034255;28;20084;-81
2022/01/04 12:35:18;;;;;;;8.20;0.93;;;5.70;99.90;;;;;;5035015;28;20401;-81
2022/01/04 12:37:43;;;;;;;10.35;0.80;;;5.70;99.90;;;;;;5033858;28;20037;-81
2022/01/04 12:40:10;;;;;;;17.98;1.48;;;5.80;99.90;;;;;;5033853;28;20180;-82
2022/01/04 12:42:40;;;;;;;4.45;0.95;;;5.80;99.90;;;;;;5033979;28;20041;-82
2022/01/04 12:45:06;;;;;;;5.10;0.57;;;5.80;99.90;;;;;;5033491;28;20056;-82
2022/01/04 12:47:32;;;;;;;5.53;0.85;;;5.80;99.90;;;;;;5033845;28;20045;-81
2022/01/04 12:50:00;;;;;;;5.18;0.77;;;5.80;99.90;;;;;;5033329;28;20057;-81
2022/01/04 12:52:26;;;;;;;6.78;1.05;;;5.80;99.90;;;;;;5033737;28;20057;-81
2022/01/04 12:54:51;;;;;;;11.13;1.77;;;5.80;99.90;;;;;;5033483;28;20477;-81
2022/01/04 12:57:20;;;;;;;4.53;0.70;;;5.80;99.90;;;;;;5034936;28;20495;-81
2022/01/04 12:59:51;;;;;;;8.48;1.20;;;5.80;99.90;;;;;;5033343;28;20042;-81